createdAt,value
2023-05-17T00:01:22.038Z,5.40
2023-05-17T00:03:50.242Z,6.55
2023-05-17T00:06:18.470Z,5.53
2023-05-17T00:08:46.826Z,5.05
2023-05-17T00:11:15.293Z,4.95
2023-05-17T00:13:43.566Z,5.03
2023-05-17T00:16:13.337Z,4.97
2023-05-17T00:18:41.668Z,4.90
2023-05-17T00:21:10.068Z,5.35
2023-05-17T00:23:38.345Z,5.55
2023-05-17T00:26:06.656Z,5.20
2023-05-17T00:28:34.869Z,6.10
2023-05-17T00:31:03.289Z,5.20
2023-05-17T00:33:33.148Z,4.90
2023-05-17T00:36:01.494Z,5.80
2023-05-17T00:38:29.753Z,5.53
2023-05-17T00:40:58.015Z,5.05
2023-05-17T00:43:26.509Z,5.50
2023-05-17T00:45:54.881Z,5.07
2023-05-17T00:48:25.725Z,4.82
2023-05-17T00:50:56.964Z,5.10
2023-05-17T00:53:25.514Z,5.65
2023-05-17T00:55:55.038Z,4.68
2023-05-17T00:58:24.271Z,5.10
2023-05-17T01:00:52.697Z,4.90
2023-05-17T01:03:22.761Z,5.50
2023-05-17T01:05:52.143Z,5.30
2023-05-17T01:08:22.245Z,5.30
2023-05-17T01:10:58.520Z,6.05
2023-05-17T01:13:35.400Z,5.63
2023-05-17T01:16:12.024Z,5.30
2023-05-17T01:18:45.541Z,5.70
2023-05-17T01:21:29.756Z,5.57
2023-05-17T01:24:15.293Z,5.28
2023-05-17T01:26:48.577Z,5.28
2023-05-17T01:29:18.871Z,5.25
2023-05-17T01:31:48.181Z,5.53
2023-05-17T01:34:25.580Z,5.43
2023-05-17T01:36:53.948Z,6.15
2023-05-17T01:39:22.485Z,5.15
2023-05-17T01:41:59.051Z,5.97
2023-05-17T01:44:34.697Z,6.22
2023-05-17T01:47:10.759Z,6.38
2023-05-17T01:49:41.780Z,5.68
2023-05-17T01:52:15.374Z,6.03
2023-05-17T01:54:48.894Z,5.32
2023-05-17T01:57:22.106Z,6.22
2023-05-17T01:59:53.110Z,5.70
2023-05-17T02:02:22.672Z,5.07
2023-05-17T02:04:51.691Z,5.03
2023-05-17T02:07:19.982Z,5.45
2023-05-17T02:09:48.256Z,6.20
2023-05-17T02:12:16.642Z,4.82
2023-05-17T02:14:46.183Z,6.28
2023-05-17T02:17:14.972Z,5.53
2023-05-17T02:19:43.213Z,5.95
2023-05-17T02:22:11.501Z,5.82
2023-05-17T02:24:39.846Z,5.88
2023-05-17T02:27:10.911Z,5.57
2023-05-17T02:29:39.040Z,6.75
2023-05-17T02:32:09.462Z,5.32
2023-05-17T02:34:37.665Z,5.15
2023-05-17T02:37:06.632Z,5.68
2023-05-17T02:39:35.011Z,5.32
2023-05-17T02:42:03.257Z,5.50
2023-05-17T02:44:31.446Z,5.93
2023-05-17T02:46:59.707Z,5.22
2023-05-17T02:49:29.386Z,5.65
2023-05-17T02:51:57.625Z,5.70
2023-05-17T02:54:26.014Z,6.00
2023-05-17T02:56:54.322Z,5.82
2023-05-17T02:59:22.498Z,5.70
2023-05-17T03:01:51.167Z,5.68
2023-05-17T03:04:20.467Z,5.15
2023-05-17T03:06:51.018Z,5.57
2023-05-17T03:09:19.341Z,5.75
2023-05-17T03:11:47.694Z,5.78
2023-05-17T03:14:15.918Z,6.47
2023-05-17T03:16:44.245Z,5.25
2023-05-17T03:19:12.766Z,6.13
2023-05-17T03:21:41.500Z,5.40
2023-05-17T03:24:11.193Z,5.18
2023-05-17T03:26:39.602Z,5.63
2023-05-17T03:29:07.956Z,6.30
2023-05-17T03:31:36.405Z,5.18
2023-05-17T03:34:04.562Z,5.65
2023-05-17T03:36:34.354Z,5.93
2023-05-17T03:39:02.641Z,5.15
2023-05-17T03:41:32.784Z,5.57
2023-05-17T03:44:01.608Z,5.95
2023-05-17T03:46:29.924Z,5.72
2023-05-17T03:48:58.163Z,6.07
2023-05-17T03:51:26.863Z,6.25
2023-05-17T03:54:00.437Z,5.43
2023-05-17T03:56:28.666Z,5.78
2023-05-17T03:58:58.364Z,6.35
2023-05-17T04:01:26.570Z,5.38
2023-05-17T04:03:54.884Z,4.93
2023-05-17T04:06:23.153Z,6.32
2023-05-17T04:08:51.494Z,5.85
2023-05-17T04:11:23.987Z,5.30
2023-05-17T04:13:52.241Z,5.35
2023-05-17T04:16:22.297Z,5.38
2023-05-17T04:18:53.114Z,5.43
2023-05-17T04:21:22.814Z,4.85
2023-05-17T04:23:50.975Z,6.22
2023-05-17T04:26:19.330Z,4.97
2023-05-17T04:28:47.699Z,5.63
2023-05-17T04:31:18.098Z,5.60
2023-05-17T04:33:47.785Z,5.38
2023-05-17T04:36:16.136Z,5.40
2023-05-17T04:38:44.403Z,6.03
2023-05-17T04:41:12.729Z,5.45
2023-05-17T04:43:42.142Z,5.70
2023-05-17T04:46:10.504Z,5.70
2023-05-17T04:48:39.484Z,5.50
2023-05-17T04:51:09.343Z,5.75
2023-05-17T04:53:37.573Z,4.72
2023-05-17T04:56:07.045Z,5.68
2023-05-17T04:58:35.169Z,5.40
2023-05-17T05:01:03.514Z,5.82
2023-05-17T05:03:31.852Z,6.00
2023-05-17T05:06:00.196Z,4.97
2023-05-17T05:08:29.894Z,6.05
2023-05-17T05:10:58.090Z,5.60
2023-05-17T05:13:26.356Z,6.18
2023-05-17T05:15:54.548Z,5.63
2023-05-17T05:18:22.923Z,5.63
2023-05-17T05:20:51.144Z,6.60
2023-05-17T05:23:19.497Z,5.35
2023-05-17T05:25:49.252Z,5.80
2023-05-17T05:28:17.649Z,5.72
2023-05-17T05:30:45.878Z,4.82
2023-05-17T05:33:14.421Z,5.40
2023-05-17T05:35:42.589Z,6.32
2023-05-17T05:38:10.767Z,5.55
2023-05-17T05:40:39.350Z,6.05
2023-05-17T05:43:08.984Z,5.78
2023-05-17T05:45:37.221Z,5.25
2023-05-17T05:48:07.538Z,5.43
2023-05-17T05:50:36.114Z,5.80
2023-05-17T05:53:17.107Z,7.50
2023-05-17T05:55:46.744Z,5.57
2023-05-17T05:58:16.357Z,5.00
2023-05-17T06:00:44.582Z,6.05
2023-05-17T06:03:12.769Z,5.15
2023-05-17T06:05:41.140Z,5.72
2023-05-17T06:08:09.479Z,5.35
2023-05-17T06:10:37.867Z,5.13
2023-05-17T06:13:06.178Z,5.93
2023-05-17T06:15:35.828Z,5.50
2023-05-17T06:18:04.678Z,5.85
2023-05-17T06:20:33.094Z,6.07
2023-05-17T06:23:02.114Z,5.13
2023-05-17T06:25:30.808Z,5.53
2023-05-17T06:27:58.998Z,6.18
2023-05-17T06:30:27.951Z,5.85
2023-05-17T06:32:57.873Z,5.82
2023-05-17T06:35:26.372Z,5.82
2023-05-17T06:37:54.812Z,5.60
2023-05-17T06:40:24.002Z,5.93
2023-05-17T06:42:52.248Z,5.70
2023-05-17T06:45:20.870Z,5.47
2023-05-17T06:47:49.351Z,5.57
2023-05-17T06:50:18.945Z,5.32
2023-05-17T06:52:47.654Z,5.63
2023-05-17T06:55:15.946Z,6.75
2023-05-17T06:57:44.490Z,6.25
2023-05-17T07:00:14.044Z,6.47
2023-05-17T07:02:42.398Z,6.60
2023-05-17T07:05:10.975Z,6.72
2023-05-17T07:07:40.697Z,6.60
2023-05-17T07:10:09.428Z,6.80
2023-05-17T07:12:37.796Z,6.97
2023-05-17T07:15:06.893Z,7.15
2023-05-17T07:17:35.233Z,6.28
2023-05-17T07:20:03.736Z,7.00
2023-05-17T07:22:32.199Z,6.82
2023-05-17T07:25:01.817Z,7.40
2023-05-17T07:27:30.081Z,6.95
2023-05-17T07:29:58.316Z,6.85
2023-05-17T07:32:26.577Z,7.78
2023-05-17T07:34:54.864Z,8.07
2023-05-17T07:37:23.209Z,7.30
2023-05-17T07:39:51.461Z,7.13
2023-05-17T07:42:24.248Z,8.45
2023-05-17T07:44:52.761Z,9.25
2023-05-17T07:47:23.269Z,7.13
2023-05-17T07:49:51.434Z,7.57
2023-05-17T07:52:19.664Z,6.93
2023-05-17T07:54:47.852Z,7.32
2023-05-17T07:57:15.989Z,6.85
2023-05-17T07:59:45.622Z,7.22
2023-05-17T08:02:13.935Z,7.30
2023-05-17T08:04:42.119Z,8.10
2023-05-17T08:07:10.486Z,6.88
2023-05-17T08:09:40.295Z,6.28
2023-05-17T08:12:08.529Z,7.32
2023-05-17T08:14:36.825Z,6.25
2023-05-17T08:17:06.675Z,6.25
2023-05-17T08:19:35.208Z,5.95
2023-05-17T08:22:03.857Z,6.13
2023-05-17T08:24:32.414Z,5.80
2023-05-17T08:27:00.704Z,4.72
2023-05-17T08:29:29.075Z,7.00
2023-05-17T08:31:57.275Z,5.35
2023-05-17T08:34:26.874Z,5.60
2023-05-17T08:36:55.192Z,5.07
2023-05-17T08:39:23.480Z,5.20
2023-05-17T08:41:51.949Z,4.78
2023-05-17T08:44:21.034Z,4.63
2023-05-17T08:46:52.503Z,5.03
2023-05-17T08:51:56.975Z,6.85
2023-05-17T08:54:25.298Z,5.20
2023-05-17T08:56:58.813Z,5.75
2023-05-17T08:59:33.866Z,5.28
2023-05-17T09:02:02.941Z,4.90
2023-05-17T09:04:31.598Z,4.60
2023-05-17T09:07:01.202Z,4.72
2023-05-17T09:09:32.812Z,7.90
2023-05-17T09:12:01.777Z,7.55
2023-05-17T09:14:35.317Z,8.95
2023-05-17T09:17:03.679Z,7.57
2023-05-17T09:19:32.520Z,7.05
2023-05-17T09:22:04.369Z,6.65
2023-05-17T09:24:32.637Z,6.70
2023-05-17T09:27:05.920Z,8.40
2023-05-17T09:29:34.562Z,7.80
2023-05-17T09:32:14.392Z,6.85
2023-05-17T09:34:43.277Z,6.80
2023-05-17T09:37:17.578Z,6.63
2023-05-17T09:39:47.085Z,6.28
2023-05-17T09:42:17.022Z,6.63
2023-05-17T09:44:51.121Z,7.25
2023-05-17T09:47:29.559Z,5.57
2023-05-17T09:50:00.750Z,5.22
2023-05-17T09:52:31.891Z,6.03
2023-05-17T09:55:01.360Z,4.85
2023-05-17T09:57:37.818Z,4.80
2023-05-17T10:00:09.777Z,5.00
2023-05-17T10:02:39.539Z,5.45
2023-05-17T10:05:12.661Z,4.72
2023-05-17T10:07:43.108Z,4.93
2023-05-17T10:10:12.743Z,5.47
2023-05-17T10:12:42.339Z,4.78
2023-05-17T10:15:13.203Z,4.97
2023-05-17T10:17:45.438Z,4.50
2023-05-17T10:20:15.996Z,5.18
2023-05-17T10:22:46.096Z,5.40
2023-05-17T10:25:14.892Z,5.55
2023-05-17T10:27:43.248Z,5.43
2023-05-17T10:30:14.725Z,5.60
2023-05-17T10:35:15.316Z,5.20
2023-05-17T10:37:43.522Z,4.88
2023-05-17T10:40:14.396Z,4.95
2023-05-17T10:42:46.454Z,5.47
2023-05-17T10:45:15.357Z,5.88
2023-05-17T10:47:46.268Z,6.00
2023-05-17T10:50:15.481Z,5.53
2023-05-17T10:52:48.968Z,6.25
2023-05-17T10:55:23.046Z,5.40
2023-05-17T10:58:16.161Z,5.32
2023-05-17T11:00:47.228Z,5.68
2023-05-17T11:03:18.046Z,5.50
2023-05-17T11:06:12.806Z,4.60
2023-05-17T11:09:07.082Z,5.40
2023-05-17T11:11:36.953Z,5.55
2023-05-17T11:14:06.740Z,4.85
2023-05-17T11:16:37.405Z,5.07
2023-05-17T11:19:09.793Z,5.87
2023-05-17T11:21:46.903Z,5.20
2023-05-17T11:24:22.075Z,5.05
2023-05-17T11:26:52.165Z,5.30
2023-05-17T11:29:20.609Z,5.40
2023-05-17T11:31:53.371Z,5.03
2023-05-17T11:34:25.735Z,5.82
2023-05-17T11:36:55.684Z,5.18
2023-05-17T11:39:25.498Z,6.03
2023-05-17T11:41:56.373Z,6.15
2023-05-17T11:44:29.029Z,5.80
2023-05-17T11:47:04.621Z,6.15
2023-05-17T11:49:36.225Z,6.50
2023-05-17T11:52:06.289Z,5.82
2023-05-17T11:54:34.982Z,6.32
2023-05-17T11:57:05.857Z,6.50
2023-05-17T11:59:39.984Z,6.53
2023-05-17T12:02:08.849Z,6.97
2023-05-17T12:04:38.806Z,6.40
2023-05-17T12:07:10.600Z,6.90
2023-05-17T12:09:40.712Z,7.32
2023-05-17T12:12:10.988Z,6.80
2023-05-17T12:14:39.277Z,7.03
2023-05-17T12:17:10.331Z,6.82
2023-05-17T12:19:38.836Z,5.60
2023-05-17T12:22:08.635Z,6.97
2023-05-17T12:24:40.924Z,6.20
2023-05-17T12:27:10.925Z,6.68
2023-05-17T12:29:40.047Z,5.95
2023-05-17T12:32:11.523Z,5.80
2023-05-17T12:34:40.876Z,5.75
2023-05-17T12:37:11.013Z,5.90
2023-05-17T12:39:39.832Z,5.05
2023-05-17T12:42:10.862Z,5.20
2023-05-17T12:44:39.118Z,6.30
2023-05-17T12:47:07.991Z,4.70
2023-05-17T12:49:40.226Z,6.25
2023-05-17T12:52:09.059Z,6.57
2023-05-17T12:54:37.193Z,5.80
2023-05-17T12:57:16.134Z,5.90
2023-05-17T12:59:49.186Z,5.47
2023-05-17T13:02:18.489Z,4.43
2023-05-17T13:04:47.586Z,5.80
2023-05-17T13:07:23.866Z,4.68
2023-05-17T13:09:52.936Z,5.00
2023-05-17T13:12:24.527Z,5.18
2023-05-17T13:14:54.939Z,5.32
2023-05-17T13:17:27.212Z,4.78
2023-05-17T13:19:57.964Z,4.57
2023-05-17T13:22:26.851Z,6.15
2023-05-17T13:24:55.621Z,5.25
2023-05-17T13:27:25.255Z,4.78
2023-05-17T13:29:54.825Z,6.45
2023-05-17T13:32:23.127Z,5.20
2023-05-17T13:34:52.018Z,5.80
2023-05-17T13:37:21.309Z,4.95
2023-05-17T13:39:49.653Z,4.68
2023-05-17T13:42:18.025Z,6.00
2023-05-17T13:44:47.654Z,4.85
2023-05-17T13:47:15.969Z,5.05
2023-05-17T13:49:44.235Z,4.60
2023-05-17T13:52:13.470Z,4.88
2023-05-17T13:54:41.654Z,4.00
2023-05-17T13:57:09.868Z,4.72
2023-05-17T13:59:38.357Z,4.95
2023-05-17T14:02:09.326Z,4.53
2023-05-17T14:04:37.589Z,4.60
2023-05-17T14:07:06.220Z,5.45
2023-05-17T14:09:36.766Z,6.45
2023-05-17T14:12:05.522Z,5.50
2023-05-17T14:14:33.796Z,5.15
2023-05-17T14:17:03.038Z,5.30
2023-05-17T14:19:33.010Z,6.22
2023-05-17T14:22:01.646Z,5.63
2023-05-17T14:24:29.895Z,5.00
2023-05-17T14:26:58.806Z,5.43
2023-05-17T14:29:27.055Z,5.20
2023-05-17T14:31:55.295Z,5.28
2023-05-17T14:34:23.583Z,4.32
2023-05-17T14:36:53.258Z,5.15
2023-05-17T14:39:21.494Z,4.50
2023-05-17T14:41:49.751Z,5.25
2023-05-17T14:44:18.043Z,4.43
2023-05-17T14:46:46.351Z,4.70
2023-05-17T14:49:14.723Z,4.60
2023-05-17T14:51:43.270Z,4.35
2023-05-17T14:54:13.747Z,4.32
2023-05-17T14:56:42.430Z,4.70
2023-05-17T14:59:10.844Z,4.03
2023-05-17T15:01:39.237Z,4.63
2023-05-17T15:04:07.509Z,4.60
2023-05-17T15:06:36.288Z,4.38
2023-05-17T15:09:04.519Z,3.90
2023-05-17T15:11:34.102Z,5.05
2023-05-17T15:14:02.491Z,4.47
2023-05-17T15:16:30.795Z,4.32
2023-05-17T15:18:59.456Z,4.05
2023-05-17T15:21:27.794Z,4.10
2023-05-17T15:23:56.129Z,3.83
2023-05-17T15:26:24.416Z,4.38
2023-05-17T15:28:54.002Z,4.82
2023-05-17T15:31:23.928Z,4.38
2023-05-17T15:33:52.308Z,4.57
2023-05-17T15:36:20.533Z,3.70
2023-05-17T15:38:48.681Z,4.30
2023-05-17T15:41:19.238Z,4.45
2023-05-17T15:43:47.472Z,4.17
2023-05-17T15:46:18.112Z,4.18
2023-05-17T15:48:46.430Z,4.17
2023-05-17T15:51:14.813Z,4.78
2023-05-17T15:53:43.121Z,5.22
2023-05-17T15:56:11.718Z,4.38
2023-05-17T15:58:39.945Z,4.75
2023-05-17T16:01:08.089Z,4.35
2023-05-17T16:03:37.972Z,4.03
2023-05-17T16:06:06.576Z,4.28
2023-05-17T16:08:34.926Z,4.53
2023-05-17T16:11:03.699Z,5.57
2023-05-17T16:13:32.185Z,4.88
2023-05-17T16:16:00.803Z,5.68
2023-05-17T16:18:31.408Z,4.28
2023-05-17T16:21:03.403Z,3.85
2023-05-17T16:23:31.811Z,4.20
2023-05-17T16:26:00.059Z,4.40
2023-05-17T16:28:28.386Z,4.90
2023-05-17T16:30:56.884Z,4.80
2023-05-17T16:33:25.369Z,4.97
2023-05-17T16:35:53.666Z,5.25
2023-05-17T16:38:23.265Z,5.70
2023-05-17T16:40:51.433Z,4.70
2023-05-17T16:43:19.742Z,5.45
2023-05-17T16:45:47.997Z,4.90
2023-05-17T16:48:17.684Z,5.40
2023-05-17T16:50:46.065Z,5.15
2023-05-17T16:53:14.219Z,5.85
2023-05-17T16:55:43.823Z,5.25
2023-05-17T16:58:12.116Z,5.28
2023-05-17T17:00:40.602Z,5.40
2023-05-17T17:03:09.733Z,4.78
2023-05-17T17:05:38.473Z,5.20
2023-05-17T17:08:06.942Z,4.82
2023-05-17T17:10:36.147Z,4.63
2023-05-17T17:13:05.787Z,5.13
2023-05-17T17:15:34.376Z,4.93
2023-05-17T17:18:02.869Z,5.82
2023-05-17T17:20:31.629Z,5.43
2023-05-17T17:22:59.862Z,5.30
2023-05-17T17:25:28.239Z,5.20
2023-05-17T17:27:56.640Z,5.78
2023-05-17T17:30:26.360Z,5.30
2023-05-17T17:32:54.729Z,5.22
2023-05-17T17:35:23.281Z,5.15
2023-05-17T17:37:53.142Z,5.60
2023-05-17T17:40:21.527Z,5.03
2023-05-17T17:42:49.701Z,4.93
2023-05-17T17:45:17.865Z,5.63
2023-05-17T17:47:47.463Z,5.47
2023-05-17T17:50:15.805Z,5.00
2023-05-17T17:52:44.803Z,5.47
2023-05-17T17:55:13.726Z,4.78
2023-05-17T17:57:42.048Z,5.30
2023-05-17T18:00:12.839Z,5.63
2023-05-17T18:02:41.231Z,6.03
2023-05-17T18:05:11.708Z,6.15
2023-05-17T18:07:40.062Z,6.85
2023-05-17T18:10:09.139Z,6.20
2023-05-17T18:12:37.495Z,5.65
2023-05-17T18:15:06.377Z,6.50
2023-05-17T18:17:34.567Z,4.85
2023-05-17T18:20:02.939Z,5.55
2023-05-17T18:22:32.842Z,4.85
2023-05-17T18:25:01.167Z,6.00
2023-05-17T18:27:29.313Z,5.82
2023-05-17T18:29:57.509Z,5.10
2023-05-17T18:32:25.816Z,5.10
2023-05-17T18:34:55.109Z,4.82
2023-05-17T18:37:23.430Z,5.20
2023-05-17T18:39:54.218Z,5.15
2023-05-17T18:42:24.996Z,4.55
2023-05-17T18:44:53.450Z,4.65
2023-05-17T18:47:23.430Z,4.68
2023-05-17T18:49:52.320Z,3.83
2023-05-17T18:52:20.601Z,4.53
2023-05-17T18:54:48.872Z,4.15
2023-05-17T18:57:18.699Z,3.78
2023-05-17T18:59:47.807Z,4.10
2023-05-17T19:02:15.969Z,4.00
2023-05-17T19:04:45.165Z,4.03
2023-05-17T19:07:13.514Z,4.28
2023-05-17T19:09:42.599Z,4.57
2023-05-17T19:12:11.558Z,4.45
2023-05-17T19:14:41.462Z,3.50
2023-05-17T19:17:10.627Z,3.60
2023-05-17T19:19:39.021Z,3.85
2023-05-17T19:22:07.160Z,3.60
2023-05-17T19:24:35.914Z,4.30
2023-05-17T19:27:04.913Z,4.13
2023-05-17T19:29:33.284Z,3.40
2023-05-17T19:32:02.948Z,4.05
2023-05-17T19:34:31.360Z,4.15
2023-05-17T19:37:00.046Z,4.50
2023-05-17T19:39:28.388Z,4.57
2023-05-17T19:41:57.018Z,3.83
2023-05-17T19:44:25.407Z,4.80
2023-05-17T19:46:54.443Z,3.78
2023-05-17T19:49:24.138Z,4.25
2023-05-17T19:51:54.178Z,3.80
2023-05-17T19:54:22.638Z,3.85
2023-05-17T19:56:51.699Z,3.53
2023-05-17T19:59:19.896Z,4.32
2023-05-17T20:01:48.130Z,3.85
2023-05-17T20:04:16.419Z,3.80
2023-05-17T20:06:46.316Z,3.72
2023-05-17T20:09:14.511Z,3.70
2023-05-17T20:11:43.223Z,3.58
2023-05-17T20:14:12.450Z,3.72
2023-05-17T20:16:40.914Z,4.40
2023-05-17T20:19:09.180Z,4.15
2023-05-17T20:21:37.434Z,4.22
2023-05-17T20:24:07.903Z,3.83
2023-05-17T20:26:37.296Z,4.13
2023-05-17T20:29:07.378Z,4.18
2023-05-17T20:31:36.826Z,4.00
2023-05-17T20:34:06.560Z,3.60
2023-05-17T20:36:34.986Z,3.85
2023-05-17T20:39:03.566Z,3.90
2023-05-17T20:41:33.198Z,3.53
2023-05-17T20:44:01.737Z,3.95
2023-05-17T20:46:30.996Z,3.67
2023-05-17T20:49:01.127Z,3.38
2023-05-17T20:51:29.505Z,4.50
2023-05-17T20:53:57.878Z,4.18
2023-05-17T20:56:26.100Z,4.10
2023-05-17T20:58:55.801Z,4.30
2023-05-17T21:01:24.180Z,4.28
2023-05-17T21:03:52.759Z,4.47
2023-05-17T21:06:22.151Z,3.42
2023-05-17T21:08:50.391Z,4.30
2023-05-17T21:11:21.434Z,3.42
2023-05-17T21:13:49.862Z,3.15
2023-05-17T21:16:19.667Z,3.08
2023-05-17T21:18:48.024Z,2.90
2023-05-17T21:21:16.239Z,2.95
2023-05-17T21:23:44.392Z,3.53
2023-05-17T21:26:12.680Z,3.45
2023-05-17T21:28:40.894Z,3.22
2023-05-17T21:31:09.428Z,3.28
2023-05-17T21:33:39.009Z,4.10
2023-05-17T21:36:07.691Z,3.83
2023-05-17T21:38:37.282Z,3.17
2023-05-17T21:41:05.495Z,3.25
2023-05-17T21:43:33.714Z,3.00
2023-05-17T21:46:02.085Z,4.93
2023-05-17T21:48:30.521Z,3.00
2023-05-17T21:51:00.190Z,3.67
2023-05-17T21:53:28.371Z,3.10
2023-05-17T21:56:02.492Z,2.95
2023-05-17T21:58:31.846Z,3.03
2023-05-17T22:01:00.341Z,2.38
2023-05-17T22:03:28.658Z,2.30
2023-05-17T22:05:57.032Z,3.08
2023-05-17T22:08:26.867Z,3.00
2023-05-17T22:10:55.841Z,2.90
2023-05-17T22:13:27.047Z,2.55
2023-05-17T22:15:57.810Z,2.85
2023-05-17T22:18:27.573Z,3.70
2023-05-17T22:20:59.274Z,3.55
2023-05-17T22:23:29.241Z,2.85
2023-05-17T22:26:00.452Z,2.90
2023-05-17T22:28:29.030Z,2.95
2023-05-17T22:30:57.228Z,3.05
2023-05-17T22:33:25.518Z,2.85
2023-05-17T22:35:54.329Z,2.97
2023-05-17T22:38:23.831Z,3.17
2023-05-17T22:40:53.402Z,3.25
2023-05-17T22:43:22.460Z,2.83
2023-05-17T22:45:51.242Z,3.20
2023-05-17T22:48:21.443Z,3.28
2023-05-17T22:50:50.657Z,3.13
2023-05-17T22:53:19.272Z,3.42
2023-05-17T22:55:49.207Z,3.00
2023-05-17T22:58:19.258Z,3.42
2023-05-17T23:00:51.081Z,3.90
2023-05-17T23:03:19.745Z,3.55
2023-05-17T23:05:48.153Z,3.42
2023-05-17T23:08:16.661Z,3.50
2023-05-17T23:10:45.911Z,3.70
2023-05-17T23:13:14.247Z,4.07
2023-05-17T23:15:46.994Z,3.85
2023-05-17T23:18:16.127Z,3.20
2023-05-17T23:20:44.272Z,3.17
2023-05-17T23:23:13.441Z,3.22
2023-05-17T23:25:42.020Z,3.15
2023-05-17T23:28:10.168Z,3.88
2023-05-17T23:30:40.054Z,3.30
2023-05-17T23:33:09.986Z,3.30
2023-05-17T23:35:38.171Z,3.00
2023-05-17T23:38:07.336Z,2.78
2023-05-17T23:40:37.274Z,2.63
2023-05-17T23:43:05.972Z,3.17
2023-05-17T23:45:34.438Z,3.38
2023-05-17T23:48:02.913Z,3.08
2023-05-17T23:50:32.701Z,3.13
2023-05-17T23:53:03.855Z,2.85
2023-05-17T23:55:32.183Z,3.03
2023-05-17T23:58:00.427Z,2.53
